Time;durP1;ratioP1;P1;durP2;ratioP2;P2;SDS_P1;SDS_P2;PMS_P1;PMS_P2;Temp;Humidity;BMP_temperature;BMP_pressure;BME280_temperature;BME280_humidity;BME280_pressure;Samples;Min_cycle;Max_cycle;Signal;HPM_P1;HPM_P2
2022/04/28 00:00:11;;;;;;;7.33;5.17;;;;;;;3.73;100.00;101774.25;5105173;28;20200;-69
2022/04/28 00:02:38;;;;;;;7.33;5.43;;;;;;;3.74;100.00;101766.56;5104046;27;20205;-69
2022/04/28 00:05:08;;;;;;;6.93;5.27;;;;;;;3.70;100.00;101769.06;5104363;28;20201;-69
2022/04/28 00:07:35;;;;;;;7.20;5.50;;;;;;;3.70;100.00;101775.06;5102967;27;20209;-69
2022/04/28 00:10:03;;;;;;;8.60;5.70;;;;;;;3.66;100.00;101773.28;5104389;28;20212;-70
2022/04/28 00:12:30;;;;;;;6.47;5.53;;;;;;;3.64;100.00;101780.13;5101735;27;20220;-69
2022/04/28 00:14:57;;;;;;;8.60;5.70;;;;;;;3.58;100.00;101772.25;5104352;28;20648;-69
2022/04/28 00:17:23;;;;;;;8.40;5.83;;;;;;;3.60;100.00;101765.41;5103678;28;20293;-69
2022/04/28 00:19:50;;;;;;;7.83;5.67;;;;;;;3.50;100.00;101773.78;5105140;27;20215;-69
2022/04/28 00:22:17;;;;;;;6.90;5.53;;;;;;;3.42;100.00;101778.78;5100202;28;20703;-69
2022/04/28 00:24:44;;;;;;;6.97;5.50;;;;;;;3.37;100.00;101768.38;5102262;28;20193;-69
2022/04/28 00:27:10;;;;;;;7.43;5.77;;;;;;;3.36;100.00;101768.31;5100881;28;20213;-69
2022/04/28 00:29:37;;;;;;;7.27;5.90;;;;;;;3.29;100.00;101767.34;5103166;28;20190;-69
2022/04/28 00:32:04;;;;;;;7.00;5.37;;;;;;;3.22;100.00;101774.06;5103817;28;20185;-69
2022/04/28 00:34:31;;;;;;;9.93;5.80;;;;;;;3.21;100.00;101776.59;5117346;27;20560;-69
2022/04/28 00:36:58;;;;;;;7.23;5.23;;;;;;;3.18;100.00;101774.84;5099962;28;20784;-69
2022/04/28 00:39:25;;;;;;;8.60;5.80;;;;;;;3.14;100.00;101767.00;5103152;28;20212;-70
2022/04/28 00:41:52;;;;;;;8.13;5.80;;;;;;;3.16;100.00;101768.75;5105530;27;20605;-69
2022/04/28 00:44:18;;;;;;;10.77;5.43;;;;;;;3.17;100.00;101774.81;5101342;28;20454;-70
2022/04/28 00:46:45;;;;;;;6.73;5.63;;;;;;;3.06;100.00;101779.72;5103566;28;20205;-69
2022/04/28 00:51:57;;;;;;;7.33;5.37;;;;;;;3.11;100.00;101779.81;5106021;28;20547;-69
2022/04/28 00:54:27;;;;;;;7.83;5.70;;;;;;;3.00;100.00;101784.72;5100757;28;20700;-69
2022/04/28 00:56:54;;;;;;;6.97;5.40;;;;;;;2.92;100.00;101786.22;5118753;27;20213;-69
2022/04/28 00:59:21;;;;;;;6.33;5.40;;;;;;;2.86;100.00;101776.66;5103884;28;20197;-69
2022/04/28 01:01:47;;;;;;;7.77;5.57;;;;;;;2.89;100.00;101771.59;5103378;28;20217;-69
2022/04/28 01:04:14;;;;;;;6.77;5.57;;;;;;;2.87;100.00;101777.50;5105198;28;20532;-69
2022/04/28 01:06:41;;;;;;;9.50;5.30;;;;;;;2.88;100.00;101780.13;5103932;28;20205;-69
2022/04/28 01:09:07;;;;;;;6.33;5.10;;;;;;;2.82;100.00;101778.28;5102208;28;20272;-69
2022/04/28 01:11:36;;;;;;;7.93;5.47;;;;;;;2.88;100.00;101774.13;5102640;28;20671;-69
2022/04/28 01:14:23;;;;;;;6.70;5.20;;;;;;;2.82;100.00;101773.13;5100558;28;20219;-70
2022/04/28 01:16:59;;;;;;;5.93;5.27;;;;;;;2.76;100.00;101778.16;5102329;28;20301;-69
2022/04/28 01:19:26;;;;;;;8.60;5.67;;;;;;;2.76;100.00;101774.69;5118240;27;20225;-69
2022/04/28 01:21:54;;;;;;;7.53;5.47;;;;;;;2.73;100.00;101778.06;5101164;28;20302;-69
2022/04/28 01:24:20;;;;;;;7.37;5.27;;;;;;;2.70;100.00;101774.53;5102298;28;20208;-69
2022/04/28 01:26:47;;;;;;;7.63;5.67;;;;;;;2.63;100.00;101774.38;5099532;28;20266;-69
2022/04/28 01:29:14;;;;;;;7.73;5.70;;;;;;;2.75;100.00;101778.97;5103433;28;20843;-69
2022/04/28 01:31:40;;;;;;;8.53;6.30;;;;;;;2.75;100.00;101775.53;5101041;28;20221;-69
2022/04/28 01:34:08;;;;;;;10.63;6.47;;;;;;;2.67;100.00;101777.91;5119462;27;20201;-69
2022/04/28 01:36:36;;;;;;;7.83;6.00;;;;;;;2.71;100.00;101776.28;5121320;27;20651;-69
2022/04/28 01:39:07;;;;;;;6.63;5.40;;;;;;;2.79;100.00;101769.63;5108952;28;20204;-69
2022/04/28 01:41:33;;;;;;;6.93;5.90;;;;;;;2.76;100.00;101775.56;5105958;28;20258;-70
2022/04/28 01:44:01;;;;;;;7.57;5.67;;;;;;;2.94;100.00;101779.44;5103603;28;20216;-69
2022/04/28 01:46:35;;;;;;;7.13;5.33;;;;;;;2.94;100.00;101775.13;5123399;27;20197;-69
2022/04/28 01:49:41;;;;;;;6.87;5.30;;;;;;;2.95;100.00;101776.00;5061411;28;20834;-69
2022/04/28 01:55:52;;;;;;;7.00;5.63;;;;;;;2.82;100.00;101785.16;5122615;27;20204;-69
2022/04/28 01:58:45;;;;;;;6.63;5.00;;;;;;;2.78;100.00;101785.88;5107377;28;20235;-69
2022/04/28 02:01:31;;;;;;;6.50;4.90;;;;;;;2.69;100.00;101784.00;5104491;28;20216;-69
2022/04/28 02:04:19;;;;;;;6.63;5.30;;;;;;;2.75;100.00;101785.84;5103843;28;20295;-69
2022/04/28 02:06:52;;;;;;;7.23;5.20;;;;;;;2.67;100.00;101780.47;5102487;27;20205;-69
2022/04/28 02:09:23;;;;;;;7.50;5.60;;;;;;;2.75;100.00;101786.69;5106540;28;20758;-69
2022/04/28 02:12:01;;;;;;;7.10;5.73;;;;;;;2.70;100.00;101783.13;5122579;27;20187;-69
2022/04/28 02:14:57;;;;;;;8.63;5.23;;;;;;;2.88;100.00;101792.16;5065360;28;20222;-69
2022/04/28 02:17:53;;;;;;;7.60;5.00;;;;;;;2.90;100.00;101788.75;5106221;27;20524;-69
2022/04/28 02:20:27;;;;;;;7.20;5.37;;;;;;;3.03;100.00;101790.81;5123356;27;20197;-69
2022/04/28 02:22:58;;;;;;;7.27;5.53;;;;;;;2.94;100.00;101798.31;5120856;27;20280;-69
2022/04/28 02:25:48;;;;;;;6.13;5.00;;;;;;;3.13;100.00;101785.84;5124754;27;20637;-69
2022/04/28 02:28:21;;;;;;;8.13;5.33;;;;;;;3.11;100.00;101796.13;5104179;28;20304;-69
2022/04/28 02:30:53;;;;;;;5.83;4.93;;;;;;;3.13;100.00;101803.91;5100698;28;20208;-69
2022/04/28 02:33:30;;;;;;;6.10;5.20;;;;;;;3.13;100.00;101801.31;5124216;27;20195;-69
2022/04/28 02:36:12;;;;;;;6.53;5.20;;;;;;;3.18;100.00;101790.31;5102546;28;20674;-69
2022/04/28 02:38:50;;;;;;;6.40;5.40;;;;;;;3.15;100.00;101799.66;5102722;28;20320;-69
2022/04/28 02:41:46;;;;;;;7.17;5.13;;;;;;;3.19;100.00;101794.59;5100565;28;20557;-69
2022/04/28 02:44:23;;;;;;;6.67;5.10;;;;;;;3.23;100.00;101795.53;5104420;28;20193;-69
2022/04/28 02:47:10;;;;;;;7.33;5.50;;;;;;;3.17;100.00;101798.00;5098778;27;20703;-69
2022/04/28 02:52:35;;;;;;;6.50;5.80;;;;;;;3.16;100.00;101806.56;5119041;27;20189;-69
2022/04/28 02:55:10;;;;;;;6.27;5.07;;;;;;;3.09;100.00;101805.53;5104686;27;20212;-69
2022/04/28 02:57:45;;;;;;;6.87;5.60;;;;;;;3.30;100.00;101801.72;5102545;27;20221;-69
2022/04/28 03:00:27;;;;;;;6.13;4.87;;;;;;;3.09;100.00;101802.97;5107236;28;20204;-69
2022/04/28 03:03:12;;;;;;;7.10;4.87;;;;;;;3.11;100.00;101805.56;5123875;27;20696;-69
2022/04/28 03:11:49;;;;;;;6.13;4.47;;;;;;;3.01;100.00;101802.78;5120917;27;20707;-69
2022/04/28 03:14:31;;;;;;;6.90;4.93;;;;;;;2.99;100.00;101796.72;5103315;27;20288;-70
2022/04/28 03:17:10;;;;;;;6.47;5.37;;;;;;;3.03;100.00;101798.53;5104242;27;20227;-69
2022/04/28 03:19:49;;;;;;;6.20;5.60;;;;;;;3.12;100.00;101804.75;5106389;28;20583;-69
2022/04/28 03:22:33;;;;;;;10.40;5.47;;;;;;;3.00;100.00;101800.16;5104532;27;20212;-69
2022/04/28 03:25:12;;;;;;;8.17;5.50;;;;;;;2.90;100.00;101801.66;5107894;27;20663;-70
2022/04/28 03:28:09;;;;;;;6.90;5.07;;;;;;;2.83;100.00;101803.22;5120545;27;20316;-69
2022/04/28 03:30:41;;;;;;;6.53;4.80;;;;;;;2.90;100.00;101801.66;5107115;27;20216;-69
2022/04/28 03:33:32;;;;;;;6.53;5.00;;;;;;;2.82;100.00;101805.75;5105083;27;20201;-69
2022/04/28 03:36:50;;;;;;;6.90;5.73;;;;;;;2.74;100.00;101807.25;5106171;27;20193;-69
2022/04/28 03:39:09;;;;;;;6.07;5.17;;;;;;;2.60;100.00;101801.75;5097471;28;20308;-69
2022/04/28 03:41:47;;;;;;;7.40;5.63;;;;;;;2.57;100.00;101814.53;5122655;27;20232;-69
2022/04/28 03:44:29;;;;;;;6.07;5.20;;;;;;;2.55;100.00;101813.66;5101914;28;20198;-69
2022/04/28 03:47:21;;;;;;;7.47;6.03;;;;;;;2.66;100.00;101814.81;5104356;28;20228;-69
2022/04/28 03:49:59;;;;;;;8.53;5.70;;;;;;;2.71;100.00;101809.75;5120677;27;20708;-69
2022/04/28 03:52:38;;;;;;;7.03;5.53;;;;;;;2.58;100.00;101817.16;5103896;28;20479;-69
2022/04/28 03:55:11;;;;;;;7.00;5.57;;;;;;;2.65;100.00;101820.78;5107258;28;20211;-69
2022/04/28 03:58:05;;;;;;;7.87;5.00;;;;;;;2.64;100.00;101824.19;5103947;28;20315;-69
2022/04/28 04:00:51;;;;;;;8.67;5.33;;;;;;;2.80;100.00;101826.31;5105711;28;20204;-70
2022/04/28 04:03:45;;;;;;;8.07;5.77;;;;;;;2.77;100.00;101825.38;5105216;28;20213;-69
2022/04/28 04:06:19;;;;;;;7.47;5.20;;;;;;;2.74;100.00;101826.16;5106792;28;20572;-69
2022/04/28 04:09:03;;;;;;;12.40;6.30;;;;;;;2.86;100.00;101833.31;5103017;27;20749;-69
2022/04/28 04:11:35;;;;;;;8.40;5.70;;;;;;;2.90;100.00;101826.53;5105204;28;20288;-70
2022/04/28 04:17:09;;;;;;;8.40;6.07;;;;;;;2.94;100.00;101836.97;5103257;28;20205;-69
2022/04/28 04:19:46;;;;;;;8.23;6.13;;;;;;;3.01;100.00;101844.03;5008780;28;20204;-69
2022/04/28 04:22:39;;;;;;;7.53;5.90;;;;;;;2.99;100.00;101845.69;5077156;28;20463;-69
2022/04/28 04:25:28;;;;;;;;;;;;;;;;;;;;;
2022/04/28 04:28:10;;;;;;;7.17;5.50;;;;;;;3.17;100.00;101859.84;5102578;28;20714;-69
2022/04/28 04:34:15;;;;;;;9.23;5.90;;;;;;;3.30;100.00;101861.00;5123152;27;20236;-69
2022/04/28 04:37:07;;;;;;;8.23;5.60;;;;;;;3.40;100.00;101865.56;5102476;27;20205;-69
2022/04/28 04:39:37;;;;;;;17.70;6.50;;;;;;;3.46;100.00;101863.09;5104800;28;20269;-70
2022/04/28 04:42:27;;;;;;;8.47;6.07;;;;;;;3.52;100.00;101871.00;5106814;28;20209;-69
2022/04/28 04:44:58;;;;;;;8.47;5.77;;;;;;;3.58;100.00;101876.28;5101438;28;20197;-70
2022/04/28 04:47:30;;;;;;;10.80;6.50;;;;;;;3.58;100.00;101880.56;5106253;28;20217;-69
2022/04/28 04:50:13;;;;;;;7.77;6.40;;;;;;;3.76;100.00;101882.69;5103450;28;20198;-69
2022/04/28 04:53:08;;;;;;;8.13;6.40;;;;;;;3.89;100.00;101882.13;5105485;28;20193;-69
2022/04/28 04:56:09;;;;;;;10.20;6.30;;;;;;;3.90;100.00;101888.16;5107248;28;20193;-69
2022/04/28 04:58:42;;;;;;;12.03;6.27;;;;;;;4.05;100.00;101885.03;5105121;28;20212;-69
2022/04/28 05:01:26;;;;;;;;;;;;;;;;;;;;;
2022/04/28 05:04:18;;;;;;;7.73;6.33;;;;;;;4.10;100.00;101892.03;5089420;27;20209;-69
2022/04/28 05:07:12;;;;;;;7.07;6.00;;;;;;;4.27;100.00;101886.31;5093241;28;20760;-69
2022/04/28 05:09:56;;;;;;;8.60;6.50;;;;;;;4.26;100.00;101898.38;5105383;28;20193;-69
2022/04/28 05:12:54;;;;;;;8.67;6.50;;;;;;;4.24;100.00;101899.16;5101128;28;20189;-69
2022/04/28 05:15:29;;;;;;;10.57;6.00;;;;;;;4.46;100.00;101908.22;5102998;28;20209;-70
2022/04/28 05:18:11;;;;;;;8.50;6.83;;;;;;;4.47;100.00;101912.56;5084638;28;20244;-70
2022/04/28 05:20:50;;;;;;;7.37;6.23;;;;;;;4.66;100.00;101904.31;5083117;28;20243;-70
2022/04/28 05:23:22;;;;;;;8.50;6.73;;;;;;;4.59;100.00;101917.97;5087676;28;20247;-70
2022/04/28 05:26:15;;;;;;;9.37;6.87;;;;;;;4.77;100.00;101922.59;5053018;28;20209;-70
2022/04/28 05:28:45;;;;;;;8.50;7.20;;;;;;;4.78;100.00;101928.63;5083556;28;20393;-69
2022/04/28 05:31:30;;;;;;;9.07;6.77;;;;;;;4.92;100.00;101919.41;5087692;28;20291;-71
2022/04/28 05:34:04;;;;;;;8.87;7.17;;;;;;;4.93;100.00;101922.03;5102830;28;20194;-69
2022/04/28 05:36:46;;;;;;;10.00;6.67;;;;;;;5.00;100.00;101925.59;5078500;28;20190;-69
2022/04/28 05:42:10;;;;;;;9.47;7.07;;;;;;;5.30;100.00;101934.72;5086553;28;20210;-70
2022/04/28 05:47:46;;;;;;;8.17;6.23;;;;;;;5.68;100.00;101934.44;5086737;28;20216;-71
2022/04/28 05:50:23;;;;;;;8.30;6.73;;;;;;;5.80;100.00;101942.38;5085140;28;20268;-71
2022/04/28 05:52:52;;;;;;;11.40;7.37;;;;;;;5.92;100.00;101944.28;5084502;28;20257;-70
2022/04/28 05:55:19;;;;;;;10.10;7.60;;;;;;;6.10;100.00;101948.00;5101629;28;20198;-70
2022/04/28 05:57:45;;;;;;;9.77;8.10;;;;;;;6.17;100.00;101950.69;5082412;28;20227;-69
2022/04/28 06:00:16;;;;;;;11.83;7.80;;;;;;;6.23;100.00;101949.94;5085691;28;20282;-70
2022/04/28 06:02:42;;;;;;;8.57;7.30;;;;;;;6.36;100.00;101953.53;5090029;28;20685;-70
2022/04/28 06:05:17;;;;;;;11.40;8.60;;;;;;;6.41;100.00;101957.06;5102156;28;20197;-70
2022/04/28 06:07:44;;;;;;;8.83;7.10;;;;;;;6.43;100.00;101952.75;5084340;28;20218;-70
2022/04/28 06:10:12;;;;;;;9.93;8.33;;;;;;;6.50;100.00;101959.75;5085690;28;20212;-70
2022/04/28 06:12:40;;;;;;;12.60;9.10;;;;;;;6.55;100.00;101965.84;5095452;28;20484;-69
2022/04/28 06:15:37;;;;;;;9.80;8.33;;;;;;;6.71;100.00;101963.44;5037376;28;20212;-70
2022/04/28 06:18:15;;;;;;;10.07;7.80;;;;;;;6.76;100.00;101966.97;5085728;28;20217;-71
2022/04/28 06:24:07;;;;;;;11.80;8.47;;;;;;;6.99;97.73;101975.84;5085917;28;20221;-70
2022/04/28 06:26:38;;;;;;;11.90;7.90;;;;;;;7.15;94.88;101974.28;5086561;28;20259;-70
2022/04/28 06:29:22;;;;;;;11.10;8.10;;;;;;;7.28;93.63;101983.06;5108987;27;20208;-69
2022/04/28 06:31:58;;;;;;;11.63;7.83;;;;;;;7.38;92.44;101982.25;5104335;28;20283;-70
2022/04/28 06:35:11;;;;;;;12.60;7.87;;;;;;;7.62;94.28;101982.47;5089841;28;20193;-70
2022/04/28 06:37:51;;;;;;;12.37;7.70;;;;;;;7.71;90.94;101987.72;5087828;28;20631;-71
2022/04/28 06:40:25;;;;;;;10.27;7.83;;;;;;;7.81;90.83;101986.06;5087866;28;20209;-71
2022/04/28 06:42:52;;;;;;;11.40;8.53;;;;;;;7.93;89.33;101989.63;5087590;28;20213;-70
2022/04/28 06:45:25;;;;;;;10.40;7.80;;;;;;;8.03;88.93;101987.94;5086210;28;20205;-70
2022/04/28 06:48:02;;;;;;;12.60;8.50;;;;;;;8.09;86.39;101990.59;5087465;28;20548;-70
2022/04/28 06:50:41;;;;;;;15.00;8.43;;;;;;;8.23;86.43;101985.47;5089172;28;20865;-70
2022/04/28 06:53:27;;;;;;;9.90;7.77;;;;;;;8.40;84.39;101995.94;5089329;28;20203;-70
2022/04/28 06:55:59;;;;;;;9.50;7.43;;;;;;;8.56;83.02;101991.69;5079970;28;20252;-70
2022/04/28 06:58:29;;;;;;;11.90;8.13;;;;;;;8.67;85.29;101990.03;5103051;28;20225;-70
2022/04/28 07:01:11;;;;;;;12.10;8.20;;;;;;;8.71;84.08;101990.91;5082880;28;20210;-70
2022/04/28 07:03:53;;;;;;;11.10;7.80;;;;;;;8.85;82.94;101996.16;5082273;28;20611;-70
2022/04/28 07:06:23;;;;;;;16.03;10.30;;;;;;;9.03;81.35;101998.78;5084925;28;20230;-70
2022/04/28 07:09:01;;;;;;;9.03;6.73;;;;;;;9.21;79.50;102003.16;5086601;28;20214;-70
2022/04/28 07:11:48;;;;;;;9.60;6.43;;;;;;;9.29;73.44;102014.44;5084590;28;20202;-71
2022/04/28 07:14:34;;;;;;;8.67;6.13;;;;;;;9.37;72.98;102019.66;5086670;28;20195;-70
2022/04/28 07:17:20;;;;;;;9.47;5.93;;;;;;;9.53;72.39;102020.53;5101538;28;20243;-69
2022/04/28 07:19:58;;;;;;;12.07;6.23;;;;;;;9.76;72.36;102012.75;5086422;28;20558;-70
2022/04/28 07:22:25;;;;;;;12.30;6.47;;;;;;;9.84;71.53;102010.13;5086756;28;20258;-70
2022/04/28 07:24:51;;;;;;;10.07;6.00;;;;;;;9.95;71.42;102020.53;5086258;28;20208;-69
2022/04/28 07:27:44;;;;;;;8.87;5.77;;;;;;;9.98;68.69;102025.75;5087853;28;20716;-69
2022/04/28 07:33:56;;;;;;;9.03;5.60;;;;;;;10.27;64.98;102027.41;5040854;28;20259;-70
2022/04/28 07:37:04;;;;;;;9.13;5.37;;;;;;;10.29;64.54;102029.16;5042530;28;21059;-69
2022/04/28 07:40:11;;;;;;;7.80;4.60;;;;;;;10.44;59.81;102035.22;4988008;28;20337;-69
2022/04/28 07:43:08;;;;;;;5.20;4.40;;;;;;;10.51;58.09;102036.94;5021317;28;20273;-69
2022/04/28 07:46:08;;;;;;;6.33;4.43;;;;;;;10.60;59.35;102029.06;5006508;28;20196;-70
2022/04/28 07:49:14;;;;;;;4.83;3.20;;;;;;;10.95;55.37;102044.56;5057329;28;20266;-69
2022/04/28 07:51:52;;;;;;;5.07;3.60;;;;;;;11.04;54.74;102041.03;5086061;28;20198;-69
2022/04/28 07:54:30;;;;;;;5.40;3.17;;;;;;;11.08;52.10;102050.63;5083407;28;20260;-70
2022/04/28 07:57:10;;;;;;;5.27;3.20;;;;;;;11.16;50.96;102054.03;5085151;28;20225;-69
2022/04/28 07:59:44;;;;;;;4.87;3.17;;;;;;;11.20;50.35;102057.47;5083686;28;20202;-70
2022/04/28 08:02:17;;;;;;;6.17;3.53;;;;;;;11.35;50.01;102052.16;5085056;28;20221;-70
2022/04/28 08:04:47;;;;;;;3.33;2.47;;;;;;;11.41;47.03;102051.25;5086010;28;20676;-70
2022/04/28 08:07:14;;;;;;;7.40;2.70;;;;;;;11.48;47.14;102049.47;5086735;28;20653;-71
2022/04/28 08:09:45;;;;;;;5.00;2.77;;;;;;;11.53;49.60;102042.47;5100189;28;20637;-70
2022/04/28 08:12:16;;;;;;;4.50;2.63;;;;;;;11.68;47.72;102044.97;5086097;28;20198;-70
2022/04/28 08:14:43;;;;;;;4.67;2.80;;;;;;;11.73;47.05;102042.31;5085462;28;20215;-70
2022/04/28 08:17:09;;;;;;;3.73;2.63;;;;;;;11.80;47.68;102041.38;5099592;28;20318;-71
2022/04/28 08:19:36;;;;;;;3.80;2.50;;;;;;;11.92;47.55;102038.72;5086613;28;20199;-71
2022/04/28 08:22:06;;;;;;;4.80;2.37;;;;;;;11.99;46.54;102043.88;5087280;28;20210;-70
2022/04/28 08:24:35;;;;;;;4.43;2.80;;;;;;;12.10;47.85;102050.72;5084186;28;20220;-71
2022/04/28 08:27:38;;;;;;;5.20;2.70;;;;;;;12.26;48.15;102042.72;5085157;28;20241;-71
2022/04/28 08:30:16;;;;;;;3.93;2.80;;;;;;;12.29;50.13;102046.19;5081307;28;20609;-69
2022/04/28 08:33:07;;;;;;;3.10;2.60;;;;;;;12.41;50.24;102033.84;5084864;28;20212;-71
2022/04/28 08:35:40;;;;;;;2.87;1.90;;;;;;;12.57;50.64;102037.16;5084960;28;20196;-70
2022/04/28 08:38:21;;;;;;;3.77;2.30;;;;;;;12.73;51.04;102033.44;5083798;28;20488;-71
2022/04/28 08:41:07;;;;;;;6.37;3.00;;;;;;;12.88;52.70;102027.16;5084903;28;20204;-70
2022/04/28 08:44:08;;;;;;;5.10;2.90;;;;;;;12.96;51.84;102037.53;5008279;28;20271;-70
2022/04/28 08:47:02;;;;;;;4.30;2.67;;;;;;;13.06;52.84;102033.88;5084320;28;20207;-70
2022/04/28 08:49:32;;;;;;;3.30;2.50;;;;;;;13.14;49.23;102039.00;5083271;28;20255;-70
2022/04/28 08:52:26;;;;;;;5.13;2.43;;;;;;;13.07;47.50;102043.50;5082234;28;20199;-70
2022/04/28 08:55:02;;;;;;;3.77;2.43;;;;;;;12.95;49.74;102038.44;5080088;28;20200;-72
2022/04/28 08:57:30;;;;;;;5.53;2.70;;;;;;;12.93;48.28;102051.53;5083412;28;20224;-71
2022/04/28 08:59:59;;;;;;;4.40;2.57;;;;;;;12.99;47.19;102046.19;5081594;28;20217;-71
2022/04/28 09:02:29;;;;;;;3.17;2.40;;;;;;;13.08;49.29;102035.59;5085554;28;20200;-72
2022/04/28 09:05:20;;;;;;;3.73;2.97;;;;;;;13.18;51.72;102032.84;5096346;28;20288;-72
2022/04/28 09:08:24;;;;;;;4.77;3.07;;;;;;;13.05;51.31;102035.66;5085305;28;20231;-71
2022/04/28 09:11:19;;;;;;;4.60;3.40;;;;;;;13.26;48.94;102038.81;5085674;28;20202;-70
2022/04/28 09:14:10;;;;;;;5.63;3.17;;;;;;;13.30;46.68;102042.25;5084476;28;20190;-70
2022/04/28 09:16:48;;;;;;;6.60;2.90;;;;;;;13.36;51.47;102023.88;5081993;28;20198;-70
2022/04/28 09:19:19;;;;;;;3.80;2.83;;;;;;;13.52;47.15;102042.84;5080619;28;20198;-70
2022/04/28 09:21:47;;;;;;;3.53;3.03;;;;;;;13.61;49.19;102037.44;5083644;28;20599;-70
2022/04/28 09:24:14;;;;;;;6.03;2.80;;;;;;;13.78;48.25;102035.41;5083490;28;20271;-71
2022/04/28 09:26:48;;;;;;;4.07;3.20;;;;;;;13.94;50.36;102035.16;5085892;28;20213;-71
2022/04/28 09:29:16;;;;;;;5.17;3.60;;;;;;;13.93;47.06;102036.94;5084267;28;20193;-70
2022/04/28 09:31:46;;;;;;;4.30;3.90;;;;;;;13.94;47.63;102033.38;5080017;28;20940;-71
2022/04/28 09:34:46;;;;;;;8.13;3.40;;;;;;;13.96;47.88;102034.22;5068046;28;20213;-71
2022/04/28 09:37:36;;;;;;;3.70;3.00;;;;;;;14.02;47.50;102035.91;5078382;28;20312;-71
2022/04/28 09:42:49;;;;;;;5.20;3.90;;;;;;;14.24;50.50;102025.00;5095538;28;20210;-71
2022/04/28 09:45:25;;;;;;;8.53;4.30;;;;;;;14.27;49.37;102022.31;5082663;28;20210;-70
2022/04/28 09:48:03;;;;;;;6.43;4.10;;;;;;;14.20;46.63;102032.06;5082749;28;20241;-70
2022/04/28 09:50:38;;;;;;;6.73;4.33;;;;;;;14.31;50.18;102018.72;5083811;28;20194;-70
2022/04/28 09:53:26;;;;;;;5.20;4.27;;;;;;;14.36;50.01;102009.00;5083242;28;20617;-70
2022/04/28 09:56:07;;;;;;;6.90;4.13;;;;;;;14.27;48.41;102012.69;5088314;28;20279;-73
2022/04/28 09:58:49;;;;;;;4.97;4.10;;;;;;;14.45;49.16;102014.06;5085668;28;20301;-70
2022/04/28 10:01:33;;;;;;;5.37;4.03;;;;;;;14.44;48.01;102022.84;5082420;28;20217;-71
2022/04/28 10:04:28;;;;;;;5.63;4.10;;;;;;;14.53;47.76;102020.03;5086352;28;20310;-71
2022/04/28 10:07:15;;;;;;;4.97;4.00;;;;;;;14.49;48.63;102007.00;5087879;28;20226;-70
2022/04/28 10:09:55;;;;;;;6.50;3.90;;;;;;;14.75;46.12;102027.50;5084595;28;20988;-71
2022/04/28 10:12:27;;;;;;;4.67;3.90;;;;;;;14.80;48.03;102023.00;5085534;28;20617;-70
2022/04/28 10:15:34;;;;;;;6.40;3.90;;;;;;;14.98;48.17;102015.63;5086555;28;20196;-71
2022/04/28 10:18:23;;;;;;;8.43;4.10;;;;;;;15.07;46.46;102018.88;5087366;28;20217;-71
2022/04/28 10:21:09;;;;;;;6.90;4.33;;;;;;;15.22;47.38;102027.34;5086163;28;20214;-72
2022/04/28 10:33:48;;;;;;;6.33;4.60;;;;;;;15.59;48.42;102015.94;5061684;28;20214;-70
2022/04/28 10:36:30;;;;;;;7.10;4.53;;;;;;;15.54;47.94;102023.94;5087167;28;20217;-71
2022/04/28 10:39:09;;;;;;;5.33;4.37;;;;;;;15.61;48.25;102016.75;5082621;28;20200;-71
2022/04/28 10:41:46;;;;;;;5.63;4.30;;;;;;;16.02;51.21;102010.47;5087775;28;20298;-71
2022/04/28 10:44:32;;;;;;;6.37;4.63;;;;;;;16.01;46.48;102028.91;5086986;28;20229;-70
2022/04/28 10:47:10;;;;;;;6.53;4.93;;;;;;;16.12;46.25;102026.84;5087637;28;20610;-72
2022/04/28 10:49:52;;;;;;;5.10;4.20;;;;;;;16.29;46.65;102018.50;5087918;28;20198;-71
2022/04/28 10:52:23;;;;;;;5.43;4.50;;;;;;;16.37;45.03;102021.75;5083704;28;20198;-70
2022/04/28 10:54:52;;;;;;;8.83;4.90;;;;;;;16.25;44.58;102035.25;5086937;28;20202;-70
2022/04/28 10:57:19;;;;;;;6.80;4.80;;;;;;;15.92;44.65;102032.66;5087927;28;20242;-70
2022/04/28 10:59:50;;;;;;;4.43;4.03;;;;;;;15.37;44.76;102029.59;5087283;28;20198;-70
2022/04/28 11:02:50;;;;;;;5.80;4.60;;;;;;;15.49;44.13;102031.91;5086806;28;20198;-70
2022/04/28 11:05:42;;;;;;;5.20;3.97;;;;;;;15.92;43.38;102029.13;5086001;28;20232;-70
2022/04/28 11:08:26;;;;;;;6.70;4.47;;;;;;;15.96;45.06;102025.53;5087714;28;20240;-70
2022/04/28 11:11:03;;;;;;;6.70;3.93;;;;;;;15.91;44.04;102028.28;5086542;28;20198;-71
2022/04/28 11:13:31;;;;;;;6.03;4.87;;;;;;;15.79;43.52;102016.31;5087570;28;20201;-70
2022/04/28 11:15:57;;;;;;;5.07;3.87;;;;;;;15.74;44.06;102023.41;5085618;28;20240;-70
2022/04/28 11:18:25;;;;;;;6.93;3.87;;;;;;;15.63;44.43;102023.69;5087478;28;20231;-70
2022/04/28 11:20:58;;;;;;;6.00;3.73;;;;;;;15.36;44.09;102027.88;5086384;28;20201;-70
2022/04/28 11:23:26;;;;;;;7.70;4.10;;;;;;;15.61;47.51;102012.34;5083021;28;20680;-69
2022/04/28 11:25:52;;;;;;;6.70;3.70;;;;;;;15.87;44.70;102018.75;5086074;28;20218;-70
2022/04/28 11:28:21;;;;;;;6.93;3.93;;;;;;;15.98;43.44;102016.69;5081542;28;20685;-70
2022/04/28 11:30:49;;;;;;;6.63;4.13;;;;;;;16.28;43.96;102027.28;5084230;28;20213;-70
2022/04/28 11:33:16;;;;;;;5.43;4.00;;;;;;;16.60;45.49;102007.97;5085768;28;20224;-70
2022/04/28 11:35:42;;;;;;;5.10;3.60;;;;;;;16.71;43.98;102027.81;5085601;28;20190;-70
2022/04/28 11:38:11;;;;;;;4.67;3.63;;;;;;;16.77;45.04;102012.72;5087007;28;20283;-69
2022/04/28 11:40:39;;;;;;;6.83;3.73;;;;;;;16.93;46.62;102009.66;5085594;28;20204;-70
2022/04/28 11:43:06;;;;;;;3.97;3.57;;;;;;;16.73;43.52;102018.97;5085312;28;20190;-70
2022/04/28 11:45:33;;;;;;;5.40;3.80;;;;;;;16.57;43.49;102017.69;5081663;28;20206;-70
2022/04/28 11:48:01;;;;;;;4.70;3.57;;;;;;;16.38;43.53;102022.66;5085707;28;20739;-70
2022/04/28 11:50:30;;;;;;;11.63;3.70;;;;;;;15.96;42.86;102015.88;5085224;28;20706;-70
2022/04/28 11:53:00;;;;;;;5.23;3.53;;;;;;;15.84;44.55;102009.16;5081093;28;20198;-70
2022/04/28 11:55:30;;;;;;;6.93;4.17;;;;;;;16.08;43.59;102009.44;5088421;28;20289;-70
2022/04/28 11:57:58;;;;;;;8.57;3.70;;;;;;;16.25;43.74;102001.94;5083989;28;20325;-70
2022/04/28 12:00:26;;;;;;;4.60;3.77;;;;;;;16.49;43.44;102003.91;5083474;28;20194;-70
2022/04/28 12:02:53;;;;;;;4.87;3.40;;;;;;;16.74;43.95;102001.41;5088835;28;20202;-70
2022/04/28 12:05:21;;;;;;;5.13;3.23;;;;;;;16.79;41.77;102010.03;5085274;28;20222;-70
2022/04/28 12:07:51;;;;;;;5.87;3.70;;;;;;;16.89;44.44;102006.25;5086668;28;20225;-70
2022/04/28 12:15:54;;;;;;;6.77;3.60;;;;;;;16.97;43.94;101995.47;5086393;28;20205;-70
2022/04/28 12:21:17;;;;;;;5.27;3.20;;;;;;;16.82;42.20;101995.00;5084472;28;20193;-70
2022/04/28 12:23:46;;;;;;;4.63;2.90;;;;;;;16.73;41.89;101991.78;5086510;28;20220;-70
2022/04/28 12:26:13;;;;;;;5.97;3.60;;;;;;;16.63;42.47;101989.41;5084629;28;20194;-71
2022/04/28 12:28:42;;;;;;;4.30;3.27;;;;;;;16.72;43.49;101990.06;5086698;28;20228;-70
2022/04/28 12:31:11;;;;;;;6.37;3.40;;;;;;;16.71;43.26;101990.94;5086153;28;20198;-70
2022/04/28 12:33:39;;;;;;;4.47;3.20;;;;;;;16.91;43.22;101985.97;5083535;28;20202;-70
2022/04/28 12:36:07;;;;;;;5.27;3.47;;;;;;;17.08;43.80;101987.22;5083860;28;20217;-70
2022/04/28 12:38:35;;;;;;;6.77;3.33;;;;;;;17.06;42.31;101989.03;5090029;28;20987;-70
2022/04/28 12:41:13;;;;;;;7.07;4.07;;;;;;;17.24;43.56;101991.09;5081526;28;20209;-70
2022/04/28 12:43:42;;;;;;;6.10;3.50;;;;;;;17.15;43.55;101984.34;5083849;28;20727;-70
2022/04/28 12:46:10;;;;;;;5.13;3.40;;;;;;;16.95;42.04;101986.75;5095180;28;20226;-70
2022/04/28 12:48:38;;;;;;;4.40;3.67;;;;;;;17.00;42.74;101979.56;5082095;28;20224;-70
2022/04/28 12:51:12;;;;;;;5.80;3.67;;;;;;;17.33;43.00;101969.72;5081621;28;20210;-70
2022/04/28 12:53:39;;;;;;;6.13;3.60;;;;;;;17.51;42.31;101977.91;5083785;28;20288;-70
2022/04/28 12:56:07;;;;;;;5.67;3.70;;;;;;;17.47;42.19;101976.31;5085412;28;20608;-70
2022/04/28 12:58:42;;;;;;;5.43;4.20;;;;;;;17.59;41.00;101978.53;5081350;28;20248;-70
2022/04/28 13:01:10;;;;;;;4.60;3.03;;;;;;;17.78;45.14;101962.91;5082088;28;20303;-71
2022/04/28 13:03:36;;;;;;;6.13;3.50;;;;;;;17.85;41.31;101966.19;5081035;28;20217;-70
2022/04/28 13:06:04;;;;;;;7.13;3.60;;;;;;;18.04;42.57;101963.78;5083973;28;20210;-70